sensor_id;sensor_type;location;lat;lon;timestamp;pressure;altitude;pressure_sealevel;temperature
5571;BMP180;2808;51.240;6.794;2022-12-29T00:01:38;99848.00;;;10.50
5571;BMP180;2808;51.240;6.794;2022-12-29T00:04:06;99851.00;;;10.40
5571;BMP180;2808;51.240;6.794;2022-12-29T00:06:34;99842.00;;;10.40
5571;BMP180;2808;51.240;6.794;2022-12-29T00:09:02;99834.00;;;10.40
5571;BMP180;2808;51.240;6.794;2022-12-29T00:11:30;99828.00;;;10.40
5571;BMP180;2808;51.240;6.794;2022-12-29T00:13:57;99827.00;;;10.50
5571;BMP180;2808;51.240;6.794;2022-12-29T00:16:44;99812.00;;;10.50
5571;BMP180;2808;51.240;6.794;2022-12-29T00:19:12;99818.00;;;10.50
5571;BMP180;2808;51.240;6.794;2022-12-29T00:21:53;99817.00;;;10.50
5571;BMP180;2808;51.240;6.794;2022-12-29T00:24:41;99806.00;;;10.50
5571;BMP180;2808;51.240;6.794;2022-12-29T00:27:27;99798.00;;;10.60
5571;BMP180;2808;51.240;6.794;2022-12-29T00:30:14;99805.00;;;10.70
5571;BMP180;2808;51.240;6.794;2022-12-29T00:32:59;99803.00;;;10.70
5571;BMP180;2808;51.240;6.794;2022-12-29T00:35:45;99787.00;;;10.70
5571;BMP180;2808;51.240;6.794;2022-12-29T00:38:14;99788.00;;;10.70
5571;BMP180;2808;51.240;6.794;2022-12-29T00:41:09;99791.00;;;10.70
5571;BMP180;2808;51.240;6.794;2022-12-29T00:43:54;99795.00;;;10.70
5571;BMP180;2808;51.240;6.794;2022-12-29T00:46:34;99781.00;;;10.70
5571;BMP180;2808;51.240;6.794;2022-12-29T00:49:02;99781.00;;;10.70
5571;BMP180;2808;51.240;6.794;2022-12-29T00:51:48;99787.00;;;10.70
5571;BMP180;2808;51.240;6.794;2022-12-29T00:54:16;99787.00;;;10.80
5571;BMP180;2808;51.240;6.794;2022-12-29T00:56:46;99770.00;;;10.80
5571;BMP180;2808;51.240;6.794;2022-12-29T00:59:14;99768.00;;;10.80
5571;BMP180;2808;51.240;6.794;2022-12-29T01:01:42;99777.00;;;10.90
5571;BMP180;2808;51.240;6.794;2022-12-29T01:04:10;99785.00;;;10.90
5571;BMP180;2808;51.240;6.794;2022-12-29T01:06:39;99773.00;;;10.90
5571;BMP180;2808;51.240;6.794;2022-12-29T01:09:08;99768.00;;;11.00
5571;BMP180;2808;51.240;6.794;2022-12-29T01:11:54;99780.00;;;11.00
5571;BMP180;2808;51.240;6.794;2022-12-29T01:14:22;99765.00;;;11.00
5571;BMP180;2808;51.240;6.794;2022-12-29T01:16:50;99765.00;;;11.00
5571;BMP180;2808;51.240;6.794;2022-12-29T01:19:18;99771.00;;;11.10
5571;BMP180;2808;51.240;6.794;2022-12-29T01:21:46;99773.00;;;11.10
5571;BMP180;2808;51.240;6.794;2022-12-29T01:24:14;99776.00;;;11.10
5571;BMP180;2808;51.240;6.794;2022-12-29T01:26:42;99766.00;;;11.10
5571;BMP180;2808;51.240;6.794;2022-12-29T01:29:11;99762.00;;;11.10
5571;BMP180;2808;51.240;6.794;2022-12-29T01:31:38;99765.00;;;11.20
5571;BMP180;2808;51.240;6.794;2022-12-29T01:34:06;99769.00;;;11.20
5571;BMP180;2808;51.240;6.794;2022-12-29T01:36:33;99766.00;;;11.30
5571;BMP180;2808;51.240;6.794;2022-12-29T01:39:04;99767.00;;;11.30
5571;BMP180;2808;51.240;6.794;2022-12-29T01:41:35;99776.00;;;11.40
5571;BMP180;2808;51.240;6.794;2022-12-29T01:47:14;99755.00;;;11.40
5571;BMP180;2808;51.240;6.794;2022-12-29T01:49:44;99760.00;;;11.40
5571;BMP180;2808;51.240;6.794;2022-12-29T01:52:12;99755.00;;;11.40
5571;BMP180;2808;51.240;6.794;2022-12-29T01:55:22;99758.00;;;11.40
5571;BMP180;2808;51.240;6.794;2022-12-29T01:57:53;99744.00;;;11.40
5571;BMP180;2808;51.240;6.794;2022-12-29T02:00:23;99736.00;;;11.40
5571;BMP180;2808;51.240;6.794;2022-12-29T02:02:53;99733.00;;;11.40
5571;BMP180;2808;51.240;6.794;2022-12-29T02:05:27;99740.00;;;11.40
5571;BMP180;2808;51.240;6.794;2022-12-29T02:07:55;99736.00;;;11.50
5571;BMP180;2808;51.240;6.794;2022-12-29T02:10:26;99733.00;;;11.50
5571;BMP180;2808;51.240;6.794;2022-12-29T02:12:55;99734.00;;;11.50
5571;BMP180;2808;51.240;6.794;2022-12-29T02:15:43;99738.00;;;11.50
5571;BMP180;2808;51.240;6.794;2022-12-29T02:18:24;99739.00;;;11.50
5571;BMP180;2808;51.240;6.794;2022-12-29T02:21:20;99727.00;;;11.50
5571;BMP180;2808;51.240;6.794;2022-12-29T02:24:27;99731.00;;;11.60
5571;BMP180;2808;51.240;6.794;2022-12-29T02:27:24;99728.00;;;11.60
5571;BMP180;2808;51.240;6.794;2022-12-29T02:33:19;99716.00;;;11.60
5571;BMP180;2808;51.240;6.794;2022-12-29T02:35:55;99714.00;;;11.60
5571;BMP180;2808;51.240;6.794;2022-12-29T02:38:32;99712.00;;;11.60
5571;BMP180;2808;51.240;6.794;2022-12-29T02:41:07;99703.00;;;11.60
5571;BMP180;2808;51.240;6.794;2022-12-29T02:43:47;99709.00;;;11.60
5571;BMP180;2808;51.240;6.794;2022-12-29T02:46:21;99705.00;;;11.70
5571;BMP180;2808;51.240;6.794;2022-12-29T02:49:01;99711.00;;;11.70
5571;BMP180;2808;51.240;6.794;2022-12-29T02:51:39;99702.00;;;11.70
5571;BMP180;2808;51.240;6.794;2022-12-29T02:54:07;99693.00;;;11.70
5571;BMP180;2808;51.240;6.794;2022-12-29T02:56:51;99688.00;;;11.70
5571;BMP180;2808;51.240;6.794;2022-12-29T02:59:19;99686.00;;;11.70
5571;BMP180;2808;51.240;6.794;2022-12-29T03:02:04;99668.00;;;11.70
5571;BMP180;2808;51.240;6.794;2022-12-29T03:05:06;99684.00;;;11.70
5571;BMP180;2808;51.240;6.794;2022-12-29T03:07:43;99686.00;;;11.70
5571;BMP180;2808;51.240;6.794;2022-12-29T03:10:22;99675.00;;;11.80
5571;BMP180;2808;51.240;6.794;2022-12-29T03:13:02;99678.00;;;11.80
5571;BMP180;2808;51.240;6.794;2022-12-29T03:16:01;99672.00;;;11.80
5571;BMP180;2808;51.240;6.794;2022-12-29T03:18:40;99665.00;;;11.80
5571;BMP180;2808;51.240;6.794;2022-12-29T03:21:13;99677.00;;;11.80
5571;BMP180;2808;51.240;6.794;2022-12-29T03:23:43;99665.00;;;11.80
5571;BMP180;2808;51.240;6.794;2022-12-29T03:26:15;99666.00;;;11.80
5571;BMP180;2808;51.240;6.794;2022-12-29T03:28:47;99656.00;;;11.80
5571;BMP180;2808;51.240;6.794;2022-12-29T03:31:17;99663.00;;;11.80
5571;BMP180;2808;51.240;6.794;2022-12-29T03:33:47;99670.00;;;11.80
5571;BMP180;2808;51.240;6.794;2022-12-29T03:36:23;99674.00;;;11.80
5571;BMP180;2808;51.240;6.794;2022-12-29T03:38:58;99666.00;;;11.80
5571;BMP180;2808;51.240;6.794;2022-12-29T03:41:28;99646.00;;;11.70
5571;BMP180;2808;51.240;6.794;2022-12-29T03:43:57;99658.00;;;11.80
5571;BMP180;2808;51.240;6.794;2022-12-29T03:46:24;99655.00;;;11.80
5571;BMP180;2808;51.240;6.794;2022-12-29T03:48:52;99657.00;;;11.80
5571;BMP180;2808;51.240;6.794;2022-12-29T03:51:20;99665.00;;;11.80
5571;BMP180;2808;51.240;6.794;2022-12-29T03:53:48;99652.00;;;11.80
5571;BMP180;2808;51.240;6.794;2022-12-29T03:56:15;99647.00;;;11.90
5571;BMP180;2808;51.240;6.794;2022-12-29T03:58:42;99634.00;;;11.90
5571;BMP180;2808;51.240;6.794;2022-12-29T04:01:10;99634.00;;;11.90
5571;BMP180;2808;51.240;6.794;2022-12-29T04:03:37;99630.00;;;11.90
5571;BMP180;2808;51.240;6.794;2022-12-29T04:06:08;99622.00;;;11.90
5571;BMP180;2808;51.240;6.794;2022-12-29T04:08:36;99624.00;;;11.90
5571;BMP180;2808;51.240;6.794;2022-12-29T04:11:04;99623.00;;;11.90
5571;BMP180;2808;51.240;6.794;2022-12-29T04:13:31;99645.00;;;11.90
5571;BMP180;2808;51.240;6.794;2022-12-29T04:16:01;99645.00;;;11.90
5571;BMP180;2808;51.240;6.794;2022-12-29T04:18:28;99647.00;;;11.90
5571;BMP180;2808;51.240;6.794;2022-12-29T04:20:56;99650.00;;;11.90
5571;BMP180;2808;51.240;6.794;2022-12-29T04:23:31;99647.00;;;11.90
5571;BMP180;2808;51.240;6.794;2022-12-29T04:26:00;99643.00;;;11.90
5571;BMP180;2808;51.240;6.794;2022-12-29T04:28:27;99661.00;;;11.90
5571;BMP180;2808;51.240;6.794;2022-12-29T04:30:55;99652.00;;;12.00
5571;BMP180;2808;51.240;6.794;2022-12-29T04:33:23;99652.00;;;12.00
5571;BMP180;2808;51.240;6.794;2022-12-29T04:35:51;99647.00;;;12.00
5571;BMP180;2808;51.240;6.794;2022-12-29T04:38:20;99638.00;;;12.00
5571;BMP180;2808;51.240;6.794;2022-12-29T04:40:50;99641.00;;;12.00
5571;BMP180;2808;51.240;6.794;2022-12-29T04:43:20;99645.00;;;12.00
5571;BMP180;2808;51.240;6.794;2022-12-29T04:45:48;99634.00;;;12.00
5571;BMP180;2808;51.240;6.794;2022-12-29T04:48:15;99647.00;;;12.00
5571;BMP180;2808;51.240;6.794;2022-12-29T04:50:43;99652.00;;;12.00
5571;BMP180;2808;51.240;6.794;2022-12-29T04:53:10;99656.00;;;12.00
5571;BMP180;2808;51.240;6.794;2022-12-29T04:55:38;99654.00;;;12.00
5571;BMP180;2808;51.240;6.794;2022-12-29T04:58:06;99655.00;;;12.00
5571;BMP180;2808;51.240;6.794;2022-12-29T05:00:34;99647.00;;;12.00
5571;BMP180;2808;51.240;6.794;2022-12-29T05:03:02;99661.00;;;12.00
5571;BMP180;2808;51.240;6.794;2022-12-29T05:05:29;99662.00;;;12.00
5571;BMP180;2808;51.240;6.794;2022-12-29T05:07:56;99660.00;;;12.00
5571;BMP180;2808;51.240;6.794;2022-12-29T05:10:24;99658.00;;;12.00
5571;BMP180;2808;51.240;6.794;2022-12-29T05:12:51;99649.00;;;12.00
5571;BMP180;2808;51.240;6.794;2022-12-29T05:15:19;99662.00;;;12.00
5571;BMP180;2808;51.240;6.794;2022-12-29T05:17:50;99660.00;;;12.00
5571;BMP180;2808;51.240;6.794;2022-12-29T05:20:18;99667.00;;;12.00
5571;BMP180;2808;51.240;6.794;2022-12-29T05:22:45;99668.00;;;12.00
5571;BMP180;2808;51.240;6.794;2022-12-29T05:25:12;99665.00;;;12.00
5571;BMP180;2808;51.240;6.794;2022-12-29T05:27:40;99669.00;;;12.00
5571;BMP180;2808;51.240;6.794;2022-12-29T05:30:08;99675.00;;;12.00
5571;BMP180;2808;51.240;6.794;2022-12-29T05:32:35;99669.00;;;11.90
5571;BMP180;2808;51.240;6.794;2022-12-29T05:35:05;99668.00;;;11.90
5571;BMP180;2808;51.240;6.794;2022-12-29T05:37:32;99667.00;;;11.90
5571;BMP180;2808;51.240;6.794;2022-12-29T05:40:00;99670.00;;;11.80
5571;BMP180;2808;51.240;6.794;2022-12-29T05:42:27;99683.00;;;11.80
5571;BMP180;2808;51.240;6.794;2022-12-29T05:44:54;99668.00;;;11.80
5571;BMP180;2808;51.240;6.794;2022-12-29T05:47:22;99660.00;;;11.70
5571;BMP180;2808;51.240;6.794;2022-12-29T05:49:49;99673.00;;;11.70
5571;BMP180;2808;51.240;6.794;2022-12-29T05:52:18;99669.00;;;11.80
5571;BMP180;2808;51.240;6.794;2022-12-29T05:54:46;99667.00;;;11.80
5571;BMP180;2808;51.240;6.794;2022-12-29T05:57:13;99673.00;;;11.80
5571;BMP180;2808;51.240;6.794;2022-12-29T05:59:41;99669.00;;;11.80
5571;BMP180;2808;51.240;6.794;2022-12-29T06:02:08;99682.00;;;11.80
5571;BMP180;2808;51.240;6.794;2022-12-29T06:04:36;99668.00;;;11.90
5571;BMP180;2808;51.240;6.794;2022-12-29T06:07:03;99694.00;;;11.90
5571;BMP180;2808;51.240;6.794;2022-12-29T06:09:32;99709.00;;;11.90
5571;BMP180;2808;51.240;6.794;2022-12-29T06:11:59;99700.00;;;11.90
5571;BMP180;2808;51.240;6.794;2022-12-29T06:14:26;99714.00;;;11.90
5571;BMP180;2808;51.240;6.794;2022-12-29T06:16:54;99704.00;;;11.80
5571;BMP180;2808;51.240;6.794;2022-12-29T06:19:21;99710.00;;;11.80
5571;BMP180;2808;51.240;6.794;2022-12-29T06:21:48;99702.00;;;11.70
5571;BMP180;2808;51.240;6.794;2022-12-29T06:24:17;99718.00;;;11.70
5571;BMP180;2808;51.240;6.794;2022-12-29T06:26:46;99720.00;;;11.70
5571;BMP180;2808;51.240;6.794;2022-12-29T06:29:13;99722.00;;;11.70
5571;BMP180;2808;51.240;6.794;2022-12-29T06:31:43;99739.00;;;11.60
5571;BMP180;2808;51.240;6.794;2022-12-29T06:34:11;99748.00;;;11.60
5571;BMP180;2808;51.240;6.794;2022-12-29T06:36:39;99750.00;;;11.60
5571;BMP180;2808;51.240;6.794;2022-12-29T06:39:10;99742.00;;;11.60
5571;BMP180;2808;51.240;6.794;2022-12-29T06:41:37;99760.00;;;11.60
5571;BMP180;2808;51.240;6.794;2022-12-29T06:44:06;99753.00;;;11.60
5571;BMP180;2808;51.240;6.794;2022-12-29T06:46:33;99746.00;;;11.60
5571;BMP180;2808;51.240;6.794;2022-12-29T06:49:00;99751.00;;;11.60
5571;BMP180;2808;51.240;6.794;2022-12-29T06:51:29;99746.00;;;11.60
5571;BMP180;2808;51.240;6.794;2022-12-29T06:53:57;99757.00;;;11.60
5571;BMP180;2808;51.240;6.794;2022-12-29T06:56:24;99763.00;;;11.60
5571;BMP180;2808;51.240;6.794;2022-12-29T06:58:51;99756.00;;;11.60
5571;BMP180;2808;51.240;6.794;2022-12-29T07:01:20;99756.00;;;11.60
5571;BMP180;2808;51.240;6.794;2022-12-29T07:03:47;99753.00;;;11.60
5571;BMP180;2808;51.240;6.794;2022-12-29T07:06:15;99757.00;;;11.60
5571;BMP180;2808;51.240;6.794;2022-12-29T07:08:42;99754.00;;;11.60
5571;BMP180;2808;51.240;6.794;2022-12-29T07:11:10;99755.00;;;11.50
5571;BMP180;2808;51.240;6.794;2022-12-29T07:13:38;99756.00;;;11.50
5571;BMP180;2808;51.240;6.794;2022-12-29T07:16:09;99766.00;;;11.50
5571;BMP180;2808;51.240;6.794;2022-12-29T07:18:38;99768.00;;;11.50
5571;BMP180;2808;51.240;6.794;2022-12-29T07:21:06;99777.00;;;11.50
5571;BMP180;2808;51.240;6.794;2022-12-29T07:23:33;99777.00;;;11.50
5571;BMP180;2808;51.240;6.794;2022-12-29T07:26:01;99779.00;;;11.40
5571;BMP180;2808;51.240;6.794;2022-12-29T07:28:28;99781.00;;;11.40
5571;BMP180;2808;51.240;6.794;2022-12-29T07:30:56;99786.00;;;11.40
5571;BMP180;2808;51.240;6.794;2022-12-29T07:33:24;99776.00;;;11.30
5571;BMP180;2808;51.240;6.794;2022-12-29T07:35:52;99792.00;;;11.30
5571;BMP180;2808;51.240;6.794;2022-12-29T07:38:20;99793.00;;;11.40
5571;BMP180;2808;51.240;6.794;2022-12-29T07:40:47;99797.00;;;11.40
5571;BMP180;2808;51.240;6.794;2022-12-29T07:43:15;99799.00;;;11.40
5571;BMP180;2808;51.240;6.794;2022-12-29T07:45:43;99811.00;;;11.40
5571;BMP180;2808;51.240;6.794;2022-12-29T07:48:10;99802.00;;;11.40
5571;BMP180;2808;51.240;6.794;2022-12-29T07:50:37;99820.00;;;11.40
5571;BMP180;2808;51.240;6.794;2022-12-29T07:53:06;99823.00;;;11.50
5571;BMP180;2808;51.240;6.794;2022-12-29T07:55:34;99822.00;;;11.50
5571;BMP180;2808;51.240;6.794;2022-12-29T07:58:22;99823.00;;;11.50
5571;BMP180;2808;51.240;6.794;2022-12-29T08:00:53;99822.00;;;11.50
5571;BMP180;2808;51.240;6.794;2022-12-29T08:03:21;99812.00;;;11.40
5571;BMP180;2808;51.240;6.794;2022-12-29T08:05:48;99828.00;;;11.40
5571;BMP180;2808;51.240;6.794;2022-12-29T08:08:17;99830.00;;;11.50
5571;BMP180;2808;51.240;6.794;2022-12-29T08:10:47;99831.00;;;11.40
5571;BMP180;2808;51.240;6.794;2022-12-29T08:13:15;99829.00;;;11.40
5571;BMP180;2808;51.240;6.794;2022-12-29T08:15:42;99832.00;;;11.40
5571;BMP180;2808;51.240;6.794;2022-12-29T08:18:09;99839.00;;;11.40
5571;BMP180;2808;51.240;6.794;2022-12-29T08:20:37;99829.00;;;11.40
5571;BMP180;2808;51.240;6.794;2022-12-29T08:23:04;99833.00;;;11.40
5571;BMP180;2808;51.240;6.794;2022-12-29T08:25:33;99837.00;;;11.40
5571;BMP180;2808;51.240;6.794;2022-12-29T08:28:00;99840.00;;;11.40
5571;BMP180;2808;51.240;6.794;2022-12-29T08:30:28;99848.00;;;11.40
5571;BMP180;2808;51.240;6.794;2022-12-29T08:32:55;99842.00;;;11.40
5571;BMP180;2808;51.240;6.794;2022-12-29T08:35:22;99853.00;;;11.40
5571;BMP180;2808;51.240;6.794;2022-12-29T08:37:50;99859.00;;;11.40
5571;BMP180;2808;51.240;6.794;2022-12-29T08:40:17;99870.00;;;11.40
5571;BMP180;2808;51.240;6.794;2022-12-29T08:42:46;99865.00;;;11.30
5571;BMP180;2808;51.240;6.794;2022-12-29T08:45:13;99874.00;;;11.30
5571;BMP180;2808;51.240;6.794;2022-12-29T08:47:40;99868.00;;;11.20
5571;BMP180;2808;51.240;6.794;2022-12-29T08:50:08;99846.00;;;11.20
5571;BMP180;2808;51.240;6.794;2022-12-29T08:52:36;99875.00;;;11.10
5571;BMP180;2808;51.240;6.794;2022-12-29T08:55:04;99875.00;;;11.20
5571;BMP180;2808;51.240;6.794;2022-12-29T08:57:34;99881.00;;;11.20
5571;BMP180;2808;51.240;6.794;2022-12-29T09:00:04;99886.00;;;11.30
5571;BMP180;2808;51.240;6.794;2022-12-29T09:02:31;99871.00;;;11.20
5571;BMP180;2808;51.240;6.794;2022-12-29T09:04:59;99874.00;;;11.20
5571;BMP180;2808;51.240;6.794;2022-12-29T09:07:26;99876.00;;;11.30
5571;BMP180;2808;51.240;6.794;2022-12-29T09:09:54;99869.00;;;11.40
5571;BMP180;2808;51.240;6.794;2022-12-29T09:12:21;99888.00;;;11.30
5571;BMP180;2808;51.240;6.794;2022-12-29T09:14:49;99887.00;;;11.30
5571;BMP180;2808;51.240;6.794;2022-12-29T09:17:17;99886.00;;;11.40
5571;BMP180;2808;51.240;6.794;2022-12-29T09:20:03;99893.00;;;11.40
5571;BMP180;2808;51.240;6.794;2022-12-29T09:22:30;99891.00;;;11.50
5571;BMP180;2808;51.240;6.794;2022-12-29T09:24:58;99904.00;;;11.50
5571;BMP180;2808;51.240;6.794;2022-12-29T09:27:25;99899.00;;;11.50
5571;BMP180;2808;51.240;6.794;2022-12-29T09:29:53;99904.00;;;11.50
5571;BMP180;2808;51.240;6.794;2022-12-29T09:32:24;99906.00;;;11.60
5571;BMP180;2808;51.240;6.794;2022-12-29T09:34:52;99906.00;;;11.80
5571;BMP180;2808;51.240;6.794;2022-12-29T09:37:19;99902.00;;;11.80
5571;BMP180;2808;51.240;6.794;2022-12-29T09:39:47;99903.00;;;11.80
5571;BMP180;2808;51.240;6.794;2022-12-29T09:42:19;99909.00;;;11.80
5571;BMP180;2808;51.240;6.794;2022-12-29T09:45:08;99909.00;;;11.80
5571;BMP180;2808;51.240;6.794;2022-12-29T09:48:04;99914.00;;;11.80
5571;BMP180;2808;51.240;6.794;2022-12-29T09:50:38;99902.00;;;11.80
5571;BMP180;2808;51.240;6.794;2022-12-29T09:53:13;99913.00;;;11.80
5571;BMP180;2808;51.240;6.794;2022-12-29T09:55:46;99916.00;;;11.80
5571;BMP180;2808;51.240;6.794;2022-12-29T09:58:20;99911.00;;;11.80
5571;BMP180;2808;51.240;6.794;2022-12-29T10:00:52;99903.00;;;12.00
5571;BMP180;2808;51.240;6.794;2022-12-29T10:03:26;99914.00;;;12.00
5571;BMP180;2808;51.240;6.794;2022-12-29T10:06:03;99914.00;;;12.10
5571;BMP180;2808;51.240;6.794;2022-12-29T10:08:39;99912.00;;;12.20
5571;BMP180;2808;51.240;6.794;2022-12-29T10:11:19;99907.00;;;12.30
5571;BMP180;2808;51.240;6.794;2022-12-29T10:14:01;99908.00;;;12.40
5571;BMP180;2808;51.240;6.794;2022-12-29T10:16:37;99916.00;;;12.40
5571;BMP180;2808;51.240;6.794;2022-12-29T10:19:27;99908.00;;;12.40
5571;BMP180;2808;51.240;6.794;2022-12-29T10:22:05;99918.00;;;12.30
5571;BMP180;2808;51.240;6.794;2022-12-29T10:24:37;99905.00;;;12.30
5571;BMP180;2808;51.240;6.794;2022-12-29T10:27:09;99915.00;;;12.30
5571;BMP180;2808;51.240;6.794;2022-12-29T10:29:40;99915.00;;;12.30
5571;BMP180;2808;51.240;6.794;2022-12-29T10:32:16;99919.00;;;12.40
5571;BMP180;2808;51.240;6.794;2022-12-29T10:34:47;99913.00;;;12.40
5571;BMP180;2808;51.240;6.794;2022-12-29T10:37:24;99914.00;;;12.40
5571;BMP180;2808;51.240;6.794;2022-12-29T10:39:55;99926.00;;;12.50
5571;BMP180;2808;51.240;6.794;2022-12-29T10:42:27;99910.00;;;12.50
5571;BMP180;2808;51.240;6.794;2022-12-29T10:44:55;99920.00;;;12.70
5571;BMP180;2808;51.240;6.794;2022-12-29T10:47:26;99930.00;;;12.80
5571;BMP180;2808;51.240;6.794;2022-12-29T10:49:57;99937.00;;;12.70
5571;BMP180;2808;51.240;6.794;2022-12-29T10:52:27;99933.00;;;12.80
5571;BMP180;2808;51.240;6.794;2022-12-29T10:54:58;99927.00;;;12.70
5571;BMP180;2808;51.240;6.794;2022-12-29T10:57:28;99946.00;;;12.70
5571;BMP180;2808;51.240;6.794;2022-12-29T10:59:58;99927.00;;;12.80
5571;BMP180;2808;51.240;6.794;2022-12-29T11:02:49;99945.00;;;12.70
5571;BMP180;2808;51.240;6.794;2022-12-29T11:05:26;99946.00;;;12.70
5571;BMP180;2808;51.240;6.794;2022-12-29T11:08:01;99959.00;;;12.70
5571;BMP180;2808;51.240;6.794;2022-12-29T11:10:34;99962.00;;;12.50
5571;BMP180;2808;51.240;6.794;2022-12-29T11:13:04;99953.00;;;12.50
5571;BMP180;2808;51.240;6.794;2022-12-29T11:15:41;99949.00;;;12.40
5571;BMP180;2808;51.240;6.794;2022-12-29T11:18:19;99951.00;;;12.50
5571;BMP180;2808;51.240;6.794;2022-12-29T11:20:49;99968.00;;;12.40
5571;BMP180;2808;51.240;6.794;2022-12-29T11:23:31;99954.00;;;12.30
5571;BMP180;2808;51.240;6.794;2022-12-29T11:26:15;99973.00;;;12.20
5571;BMP180;2808;51.240;6.794;2022-12-29T11:28:44;99983.00;;;12.20
5571;BMP180;2808;51.240;6.794;2022-12-29T11:31:16;99949.00;;;12.20
5571;BMP180;2808;51.240;6.794;2022-12-29T11:33:44;99981.00;;;12.20
5571;BMP180;2808;51.240;6.794;2022-12-29T11:36:16;99988.00;;;12.20
5571;BMP180;2808;51.240;6.794;2022-12-29T11:38:48;99979.00;;;12.10
5571;BMP180;2808;51.240;6.794;2022-12-29T11:41:21;99973.00;;;12.10
5571;BMP180;2808;51.240;6.794;2022-12-29T11:43:50;99990.00;;;12.10
5571;BMP180;2808;51.240;6.794;2022-12-29T11:46:22;99993.00;;;12.10
5571;BMP180;2808;51.240;6.794;2022-12-29T11:48:54;100005.00;;;12.10
5571;BMP180;2808;51.240;6.794;2022-12-29T11:51:28;99994.00;;;12.10
5571;BMP180;2808;51.240;6.794;2022-12-29T11:53:58;100003.00;;;12.10
5571;BMP180;2808;51.240;6.794;2022-12-29T11:56:37;100003.00;;;12.10
5571;BMP180;2808;51.240;6.794;2022-12-29T11:59:37;100007.00;;;12.10
5571;BMP180;2808;51.240;6.794;2022-12-29T12:02:29;100008.00;;;12.10
5571;BMP180;2808;51.240;6.794;2022-12-29T12:05:04;100007.00;;;12.00
5571;BMP180;2808;51.240;6.794;2022-12-29T12:07:39;100016.00;;;12.00
5571;BMP180;2808;51.240;6.794;2022-12-29T12:10:15;100015.00;;;12.00
5571;BMP180;2808;51.240;6.794;2022-12-29T12:12:50;100029.00;;;11.90
5571;BMP180;2808;51.240;6.794;2022-12-29T12:15:22;100022.00;;;11.90
5571;BMP180;2808;51.240;6.794;2022-12-29T12:17:53;100029.00;;;11.90
5571;BMP180;2808;51.240;6.794;2022-12-29T12:20:25;100021.00;;;11.80
5571;BMP180;2808;51.240;6.794;2022-12-29T12:23:02;100028.00;;;11.80
5571;BMP180;2808;51.240;6.794;2022-12-29T12:25:38;100027.00;;;11.70
5571;BMP180;2808;51.240;6.794;2022-12-29T12:28:13;100036.00;;;11.80
5571;BMP180;2808;51.240;6.794;2022-12-29T12:30:47;100038.00;;;11.80
5571;BMP180;2808;51.240;6.794;2022-12-29T12:33:22;100031.00;;;11.80
5571;BMP180;2808;51.240;6.794;2022-12-29T12:35:57;100041.00;;;11.80
5571;BMP180;2808;51.240;6.794;2022-12-29T12:38:36;100030.00;;;11.80
5571;BMP180;2808;51.240;6.794;2022-12-29T12:41:09;100043.00;;;11.80
5571;BMP180;2808;51.240;6.794;2022-12-29T12:43:43;100041.00;;;11.70
5571;BMP180;2808;51.240;6.794;2022-12-29T12:46:49;100048.00;;;11.70
5571;BMP180;2808;51.240;6.794;2022-12-29T12:52:37;100042.00;;;11.70
5571;BMP180;2808;51.240;6.794;2022-12-29T12:55:27;100059.00;;;11.70
5571;BMP180;2808;51.240;6.794;2022-12-29T12:58:02;100053.00;;;11.80
5571;BMP180;2808;51.240;6.794;2022-12-29T13:00:37;100053.00;;;11.80
5571;BMP180;2808;51.240;6.794;2022-12-29T13:03:17;100058.00;;;11.70
5571;BMP180;2808;51.240;6.794;2022-12-29T13:06:04;100063.00;;;11.70
5571;BMP180;2808;51.240;6.794;2022-12-29T13:08:59;100064.00;;;11.80
5571;BMP180;2808;51.240;6.794;2022-12-29T13:11:38;100058.00;;;11.80
5571;BMP180;2808;51.240;6.794;2022-12-29T13:14:19;100081.00;;;11.70
5571;BMP180;2808;51.240;6.794;2022-12-29T13:16:51;100066.00;;;11.70
5571;BMP180;2808;51.240;6.794;2022-12-29T13:19:29;100074.00;;;11.60
5571;BMP180;2808;51.240;6.794;2022-12-29T13:22:04;100070.00;;;11.60
5571;BMP180;2808;51.240;6.794;2022-12-29T13:24:40;100057.00;;;11.50
5571;BMP180;2808;51.240;6.794;2022-12-29T13:27:15;100076.00;;;11.50
5571;BMP180;2808;51.240;6.794;2022-12-29T13:29:50;100082.00;;;11.60
5571;BMP180;2808;51.240;6.794;2022-12-29T13:32:32;100070.00;;;11.60
5571;BMP180;2808;51.240;6.794;2022-12-29T13:35:11;100075.00;;;11.60
5571;BMP180;2808;51.240;6.794;2022-12-29T13:37:48;100084.00;;;11.70
5571;BMP180;2808;51.240;6.794;2022-12-29T13:40:21;100079.00;;;11.70
5571;BMP180;2808;51.240;6.794;2022-12-29T13:42:52;100080.00;;;11.70
5571;BMP180;2808;51.240;6.794;2022-12-29T13:45:22;100077.00;;;11.70
5571;BMP180;2808;51.240;6.794;2022-12-29T13:47:54;100066.00;;;11.70
5571;BMP180;2808;51.240;6.794;2022-12-29T13:50:26;100065.00;;;11.60
5571;BMP180;2808;51.240;6.794;2022-12-29T13:53:01;100070.00;;;11.60
5571;BMP180;2808;51.240;6.794;2022-12-29T13:55:35;100075.00;;;11.50
5571;BMP180;2808;51.240;6.794;2022-12-29T13:58:12;100080.00;;;11.50
5571;BMP180;2808;51.240;6.794;2022-12-29T14:00:47;100084.00;;;11.50
5571;BMP180;2808;51.240;6.794;2022-12-29T14:03:29;100075.00;;;11.50
5571;BMP180;2808;51.240;6.794;2022-12-29T14:06:11;100079.00;;;11.60
5571;BMP180;2808;51.240;6.794;2022-12-29T14:08:44;100081.00;;;11.60
5571;BMP180;2808;51.240;6.794;2022-12-29T14:11:14;100095.00;;;11.50
5571;BMP180;2808;51.240;6.794;2022-12-29T14:13:44;100095.00;;;11.50
5571;BMP180;2808;51.240;6.794;2022-12-29T14:16:32;100101.00;;;11.50
5571;BMP180;2808;51.240;6.794;2022-12-29T14:19:12;100098.00;;;11.50
5571;BMP180;2808;51.240;6.794;2022-12-29T14:21:41;100093.00;;;11.50
5571;BMP180;2808;51.240;6.794;2022-12-29T14:24:40;100107.00;;;11.50
5571;BMP180;2808;51.240;6.794;2022-12-29T14:27:51;100104.00;;;11.40
5571;BMP180;2808;51.240;6.794;2022-12-29T14:33:21;100114.00;;;11.40
5571;BMP180;2808;51.240;6.794;2022-12-29T14:35:50;100110.00;;;11.30
5571;BMP180;2808;51.240;6.794;2022-12-29T14:38:26;100118.00;;;11.40
5571;BMP180;2808;51.240;6.794;2022-12-29T14:41:27;100125.00;;;11.40
5571;BMP180;2808;51.240;6.794;2022-12-29T14:43:59;100128.00;;;11.30
5571;BMP180;2808;51.240;6.794;2022-12-29T14:46:43;100125.00;;;11.30
5571;BMP180;2808;51.240;6.794;2022-12-29T14:49:17;100130.00;;;11.30
5571;BMP180;2808;51.240;6.794;2022-12-29T14:51:46;100125.00;;;11.20
5571;BMP180;2808;51.240;6.794;2022-12-29T14:57:33;100128.00;;;11.20
5571;BMP180;2808;51.240;6.794;2022-12-29T15:00:22;100136.00;;;11.10
5571;BMP180;2808;51.240;6.794;2022-12-29T15:02:59;100130.00;;;11.10
5571;BMP180;2808;51.240;6.794;2022-12-29T15:05:34;100137.00;;;11.10
5571;BMP180;2808;51.240;6.794;2022-12-29T15:08:04;100150.00;;;11.10
5571;BMP180;2808;51.240;6.794;2022-12-29T15:10:37;100142.00;;;11.10
5571;BMP180;2808;51.240;6.794;2022-12-29T15:13:15;100139.00;;;11.10
5571;BMP180;2808;51.240;6.794;2022-12-29T15:15:43;100133.00;;;11.10
5571;BMP180;2808;51.240;6.794;2022-12-29T15:18:24;100144.00;;;11.10
5571;BMP180;2808;51.240;6.794;2022-12-29T15:20:55;100155.00;;;11.10